Time,TemperatureF,DewpointF,PressureIn,WindDirection,WindDirectionDegrees,WindSpeedMPH,WindSpeedGustMPH,Humidity,HourlyPrecipIn,Conditions,Clouds,dailyrainin,SoftwareType,DateUTC
2013-03-18 00:00:00,35.3,30.6,29.46,ENE,68,2.7,6.3,83,0.00,,,0.00,WUHU216HW,2013-03-18 05:00:00,
2013-03-18 00:05:00,35.1,30.7,29.46,NNE,23,1.6,4.7,84,0.00,,,0.00,WUHU216HW,2013-03-18 05:05:00,
2013-03-18 00:10:00,35.1,30.4,29.47,South,180,1.3,4.0,83,0.00,,,0.00,WUHU216HW,2013-03-18 05:10:00,
2013-03-18 00:15:00,35.5,30.8,29.47,SW,225,0.4,1.8,83,0.00,,,0.00,WUHU216HW,2013-03-18 05:15:00,
2013-03-18 00:20:00,35.6,31.0,29.47,South,180,0.4,1.6,83,0.00,,,0.00,WUHU216HW,2013-03-18 05:20:00,
2013-03-18 00:25:00,36.0,31.3,29.48,SSW,203,0.4,1.6,83,0.00,,,0.00,WUHU216HW,2013-03-18 05:25:00,
2013-03-18 00:30:00,36.2,31.1,29.47,SE,135,1.1,2.0,82,0.00,,,0.00,WUHU216HW,2013-03-18 05:30:00,
2013-03-18 00:35:00,36.4,31.3,29.47,SSE,158,0.7,2.0,82,0.00,,,0.00,WUHU216HW,2013-03-18 05:35:00,
2013-03-18 00:40:00,36.2,31.1,29.47,SE,135,0.4,1.3,82,0.00,,,0.00,WUHU216HW,2013-03-18 05:40:00,
2013-03-18 00:45:00,35.8,30.5,29.47,SE,135,0.9,1.1,81,0.00,,,0.00,WUHU216HW,2013-03-18 05:45:00,
2013-03-18 00:50:00,35.6,30.3,29.47,SSE,158,1.6,1.6,81,0.00,,,0.00,WUHU216HW,2013-03-18 05:50:00,
2013-03-18 00:55:00,35.5,30.2,29.47,SE,135,1.1,1.6,81,0.00,,,0.00,WUHU216HW,2013-03-18 05:55:00,
2013-03-18 01:00:00,35.3,30.0,29.47,SE,135,0.7,1.1,81,0.00,,,0.00,WUHU216HW,2013-03-18 06:00:00,
2013-03-18 01:05:00,34.9,29.9,29.46,SE,135,1.3,2.5,82,0.00,,,0.00,WUHU216HW,2013-03-18 06:05:00,
2013-03-18 01:10:00,34.9,29.9,29.45,SE,135,1.1,2.5,82,0.01,,,0.01,WUHU216HW,2013-03-18 06:10:00,
2013-03-18 01:15:00,34.7,29.7,29.45,East,90,1.3,1.8,82,0.01,,,0.01,WUHU216HW,2013-03-18 06:15:00,
2013-03-18 01:20:00,34.6,29.5,29.44,SE,135,2.7,2.7,82,0.01,,,0.01,WUHU216HW,2013-03-18 06:20:00,
2013-03-18 01:25:00,34.4,29.3,29.44,SE,135,1.8,2.7,82,0.01,,,0.01,WUHU216HW,2013-03-18 06:25:00,
2013-03-18 01:30:00,34.2,29.5,29.44,SE,135,2.5,2.5,83,0.01,,,0.01,WUHU216HW,2013-03-18 06:30:00,
2013-03-18 01:35:00,34.0,29.4,29.43,ESE,113,3.4,4.0,83,0.01,,,0.01,WUHU216HW,2013-03-18 06:35:00,
2013-03-18 01:40:00,33.7,29.0,29.42,SE,135,5.1,5.6,83,0.01,,,0.01,WUHU216HW,2013-03-18 06:40:00,
2013-03-18 01:45:00,33.5,29.3,29.41,SE,135,3.6,6.5,85,0.01,,,0.01,WUHU216HW,2013-03-18 06:45:00,
2013-03-18 01:50:00,33.1,29.1,29.41,SE,135,6.0,7.4,85,0.02,,,0.03,WUHU216HW,2013-03-18 06:50:00,
2013-03-18 01:55:00,33.1,29.3,29.41,SE,135,3.8,8.3,86,0.02,,,0.03,WUHU216HW,2013-03-18 06:55:00,
2013-03-18 02:00:00,33.1,29.1,29.42,ESE,113,4.3,8.3,85,0.02,,,0.03,WUHU216HW,2013-03-18 07:00:00,
2013-03-18 02:05:00,33.1,29.3,29.42,South,180,4.5,5.4,86,0.01,,,0.03,WUHU216HW,2013-03-18 07:05:00,
2013-03-18 02:10:00,33.1,29.1,29.43,ESE,113,4.9,5.4,85,0.02,,,0.03,WUHU216HW,2013-03-18 07:10:00,
2013-03-18 02:15:00,33.3,29.5,29.42,SE,135,3.4,6.3,86,0.02,,,0.03,WUHU216HW,2013-03-18 07:15:00,
2013-03-18 02:20:00,33.1,29.3,29.41,SE,135,5.4,6.3,86,0.02,,,0.03,WUHU216HW,2013-03-18 07:20:00,
2013-03-18 02:25:00,33.1,29.3,29.40,SSE,158,6.3,6.3,86,0.02,,,0.03,WUHU216HW,2013-03-18 07:25:00,
2013-03-18 02:30:00,33.1,29.3,29.43,SSW,203,1.8,6.3,86,0.02,,,0.03,WUHU216HW,2013-03-18 07:30:00,
2013-03-18 02:35:00,33.1,29.3,29.42,SE,135,3.4,6.3,86,0.02,,,0.03,WUHU216HW,2013-03-18 07:35:00,
2013-03-18 02:40:00,33.3,29.5,29.43,SSE,158,4.7,4.7,86,0.02,,,0.03,WUHU216HW,2013-03-18 07:40:00,
2013-03-18 02:45:00,33.5,29.7,29.43,SSE,158,5.1,5.6,86,0.01,,,0.03,WUHU216HW,2013-03-18 07:45:00,
2013-03-18 02:50:00,33.5,29.7,29.43,SSE,158,3.4,5.6,86,0.01,,,0.03,WUHU216HW,2013-03-18 07:50:00,
2013-03-18 02:55:00,33.7,29.5,29.44,WSW,248,1.1,4.7,85,0.01,,,0.03,WUHU216HW,2013-03-18 07:55:00,
2013-03-18 03:00:00,33.8,29.7,29.44,SSW,203,2.0,2.7,85,0.01,,,0.03,WUHU216HW,2013-03-18 08:00:00,
2013-03-18 03:05:00,34.2,30.1,29.44,SSE,158,1.1,2.5,85,0.00,,,0.03,WUHU216HW,2013-03-18 08:05:00,
2013-03-18 03:10:00,34.2,30.1,29.44,SSW,203,2.9,2.9,85,0.00,,,0.03,WUHU216HW,2013-03-18 08:10:00,
2013-03-18 03:15:00,34.2,30.1,29.44,SW,225,3.6,3.6,85,0.01,,,0.05,WUHU216HW,2013-03-18 08:15:00,
2013-03-18 03:20:00,34.4,30.0,29.45,SSW,203,3.4,3.8,84,0.01,,,0.05,WUHU216HW,2013-03-18 08:20:00,
2013-03-18 03:25:00,34.6,30.2,29.45,SSE,158,1.8,3.8,84,0.01,,,0.05,WUHU216HW,2013-03-18 08:25:00,
2013-03-18 03:30:00,34.7,30.3,29.46,WSW,248,2.2,2.5,84,0.01,,,0.05,WUHU216HW,2013-03-18 08:30:00,
2013-03-18 03:35:00,34.7,30.6,29.45,WSW,248,0.7,2.2,85,0.01,,,0.05,WUHU216HW,2013-03-18 08:35:00,
2013-03-18 03:40:00,34.7,30.3,29.45,NW,315,1.1,1.6,84,0.01,,,0.05,WUHU216HW,2013-03-18 08:40:00,
2013-03-18 03:45:00,34.9,30.5,29.46,SW,225,2.2,2.2,84,0.01,,,0.05,WUHU216HW,2013-03-18 08:45:00,
2013-03-18 03:50:00,34.9,30.5,29.45,SW,225,1.3,2.2,84,0.01,,,0.05,WUHU216HW,2013-03-18 08:50:00,
2013-03-18 03:55:00,34.9,30.5,29.45,WSW,248,1.1,1.8,84,0.01,,,0.05,WUHU216HW,2013-03-18 08:55:00,
2013-03-18 04:00:00,34.9,30.5,29.45,NW,315,1.1,1.6,84,0.01,,,0.05,WUHU216HW,2013-03-18 09:00:00,
2013-03-18 04:05:00,34.9,30.5,29.45,SW,225,1.3,1.8,84,0.01,,,0.05,WUHU216HW,2013-03-18 09:05:00,
2013-03-18 04:10:00,34.9,30.5,29.45,WSW,248,1.6,1.8,84,0.01,,,0.05,WUHU216HW,2013-03-18 09:10:00,
2013-03-18 04:15:00,35.1,30.7,29.45,SW,225,0.4,1.8,84,0.00,,,0.05,WUHU216HW,2013-03-18 09:15:00,
2013-03-18 04:20:00,35.1,30.7,29.44,SW,225,1.8,1.8,84,0.00,,,0.05,WUHU216HW,2013-03-18 09:20:00,
2013-03-18 04:25:00,35.3,30.9,29.44,WSW,248,0.9,2.0,84,0.00,,,0.05,WUHU216HW,2013-03-18 09:25:00,
2013-03-18 04:30:00,35.3,30.9,29.44,SW,225,0.4,2.0,84,0.00,,,0.05,WUHU216HW,2013-03-18 09:30:00,
2013-03-18 04:35:00,35.3,30.9,29.44,West,270,0.4,1.6,84,0.00,,,0.05,WUHU216HW,2013-03-18 09:35:00,
2013-03-18 04:40:00,35.3,30.9,29.43,NW,315,1.8,1.8,84,0.00,,,0.05,WUHU216HW,2013-03-18 09:40:00,
2013-03-18 04:45:00,35.5,31.1,29.43,SW,225,0.4,1.8,84,0.00,,,0.05,WUHU216HW,2013-03-18 09:45:00,
2013-03-18 04:50:00,35.5,31.1,29.43,West,270,0.4,1.8,84,0.00,,,0.05,WUHU216HW,2013-03-18 09:50:00,
2013-03-18 04:55:00,35.5,31.1,29.43,SSW,203,1.1,1.1,84,0.00,,,0.05,WUHU216HW,2013-03-18 09:55:00,
2013-03-18 05:00:00,35.6,31.2,29.43,SSW,203,1.8,1.8,84,0.00,,,0.05,WUHU216HW,2013-03-18 10:00:00,
2013-03-18 05:05:00,35.6,31.2,29.43,SW,225,1.1,1.8,84,0.00,,,0.05,WUHU216HW,2013-03-18 10:05:00,
2013-03-18 05:10:00,35.6,31.2,29.43,WSW,248,1.3,1.3,84,0.00,,,0.05,WUHU216HW,2013-03-18 10:10:00,
2013-03-18 05:15:00,35.6,31.2,29.43,WSW,248,0.4,1.6,84,0.00,,,0.05,WUHU216HW,2013-03-18 10:15:00,
2013-03-18 05:20:00,35.6,31.2,29.43,West,270,0.9,1.6,84,0.00,,,0.05,WUHU216HW,2013-03-18 10:20:00,
2013-03-18 05:25:00,35.6,31.2,29.43,WSW,248,1.6,1.6,84,0.00,,,0.05,WUHU216HW,2013-03-18 10:25:00,
2013-03-18 05:30:00,35.6,31.2,29.43,WSW,248,1.8,1.8,84,0.00,,,0.05,WUHU216HW,2013-03-18 10:30:00,
2013-03-18 05:35:00,35.6,31.2,29.43,WSW,248,2.7,2.7,84,0.00,,,0.05,WUHU216HW,2013-03-18 10:35:00,
2013-03-18 05:40:00,35.6,31.2,29.43,West,270,1.8,2.7,84,0.00,,,0.05,WUHU216HW,2013-03-18 10:40:00,
2013-03-18 05:45:00,35.6,31.2,29.43,SW,225,1.8,2.2,84,0.00,,,0.05,WUHU216HW,2013-03-18 10:45:00,
2013-03-18 05:50:00,35.8,31.4,29.43,South,180,0.9,3.4,84,0.00,,,0.05,WUHU216HW,2013-03-18 10:50:00,
2013-03-18 05:55:00,35.8,31.4,29.43,NNW,338,2.7,3.4,84,0.00,,,0.05,WUHU216HW,2013-03-18 10:55:00,
2013-03-18 06:00:00,35.8,31.4,29.43,West,270,1.3,2.7,84,0.00,,,0.05,WUHU216HW,2013-03-18 11:00:00,
2013-03-18 06:05:00,35.8,31.4,29.43,NW,315,2.5,3.1,84,0.00,,,0.05,WUHU216HW,2013-03-18 11:05:00,
2013-03-18 06:10:00,36.0,31.6,29.43,SW,225,2.5,3.1,84,0.00,,,0.05,WUHU216HW,2013-03-18 11:10:00,
2013-03-18 06:15:00,36.0,31.6,29.43,NW,315,1.6,2.5,84,0.00,,,0.05,WUHU216HW,2013-03-18 11:15:00,
2013-03-18 06:20:00,36.0,31.6,29.44,West,270,3.4,3.4,84,0.00,,,0.05,WUHU216HW,2013-03-18 11:20:00,
2013-03-18 06:25:00,36.0,31.9,29.44,WNW,293,4.0,4.0,85,0.00,,,0.05,WUHU216HW,2013-03-18 11:25:00,
2013-03-18 06:30:00,36.0,31.9,29.44,North,0,4.7,6.9,85,0.00,,,0.05,WUHU216HW,2013-03-18 11:30:00,
2013-03-18 06:35:00,36.0,31.3,29.44,North,0,3.6,8.1,83,0.00,,,0.05,WUHU216HW,2013-03-18 11:35:00,
2013-03-18 06:40:00,35.8,29.9,29.44,NNW,338,7.6,8.1,79,0.00,,,0.05,WUHU216HW,2013-03-18 11:40:00,
2013-03-18 06:45:00,35.6,28.8,29.44,NNW,338,8.3,8.3,76,0.00,,,0.05,WUHU216HW,2013-03-18 11:45:00,
2013-03-18 06:50:00,35.3,27.5,29.44,NW,315,10.5,11.2,73,0.00,,,0.05,WUHU216HW,2013-03-18 11:50:00,
2013-03-18 06:55:00,34.9,27.1,29.45,NNW,338,10.3,11.2,73,0.00,,,0.05,WUHU216HW,2013-03-18 11:55:00,
2013-03-18 07:00:00,34.9,27.1,29.45,NNW,338,5.1,10.3,73,0.00,,,0.05,WUHU216HW,2013-03-18 12:00:00,
2013-03-18 07:05:00,34.7,26.9,29.45,NNW,338,6.5,9.2,73,0.00,,,0.05,WUHU216HW,2013-03-18 12:05:00,
2013-03-18 07:10:00,34.6,26.7,29.46,WNW,293,5.4,8.1,73,0.00,,,0.05,WUHU216HW,2013-03-18 12:10:00,
2013-03-18 07:15:00,34.2,26.0,29.46,NNW,338,4.5,10.3,72,0.00,,,0.05,WUHU216HW,2013-03-18 12:15:00,
2013-03-18 07:20:00,34.2,25.8,29.46,NNW,338,9.2,10.3,71,0.00,,,0.05,WUHU216HW,2013-03-18 12:20:00,
2013-03-18 07:25:00,34.0,25.8,29.46,NNW,338,3.8,9.6,72,0.00,,,0.05,WUHU216HW,2013-03-18 12:25:00,
2013-03-18 07:30:00,33.8,25.4,29.46,NNW,338,11.4,11.4,71,0.00,,,0.05,WUHU216HW,2013-03-18 12:30:00,
2013-03-18 07:35:00,33.5,25.0,29.47,NNW,338,8.5,11.4,71,0.00,,,0.05,WUHU216HW,2013-03-18 12:35:00,
2013-03-18 07:40:00,33.5,25.4,29.47,NNW,338,4.3,11.2,72,0.00,,,0.05,WUHU216HW,2013-03-18 12:40:00,
2013-03-18 07:45:00,33.3,24.6,29.47,NNW,338,5.6,12.3,70,0.00,,,0.05,WUHU216HW,2013-03-18 12:45:00,
2013-03-18 07:50:00,33.1,24.4,29.47,NNW,338,5.4,12.3,70,0.00,,,0.05,WUHU216HW,2013-03-18 12:50:00,
2013-03-18 07:55:00,32.9,24.2,29.47,NNW,338,9.2,9.8,70,0.00,,,0.05,WUHU216HW,2013-03-18 12:55:00,
2013-03-18 08:00:00,32.8,23.3,29.48,NNW,338,6.0,13.4,68,0.00,,,0.05,WUHU216HW,2013-03-18 13:00:00,
2013-03-18 08:05:00,32.8,23.7,29.48,NNW,338,3.8,13.4,69,0.00,,,0.05,WUHU216HW,2013-03-18 13:05:00,
2013-03-18 08:10:00,32.8,23.7,29.48,NNW,338,7.6,7.6,69,0.00,,,0.05,WUHU216HW,2013-03-18 13:10:00,
2013-03-18 08:15:00,32.8,23.7,29.48,NNW,338,5.1,7.6,69,0.00,,,0.05,WUHU216HW,2013-03-18 13:15:00,
2013-03-18 08:20:00,32.8,23.3,29.48,NNW,338,8.5,8.5,68,0.00,,,0.05,WUHU216HW,2013-03-18 13:20:00,
2013-03-18 08:25:00,32.8,23.3,29.48,NNW,338,4.9,8.5,68,0.00,,,0.05,WUHU216HW,2013-03-18 13:25:00,
2013-03-18 08:30:00,32.8,23.0,29.49,NNW,338,12.8,12.8,67,0.00,,,0.05,WUHU216HW,2013-03-18 13:30:00,
2013-03-18 08:35:00,32.9,23.1,29.49,NNW,338,8.5,12.8,67,0.00,,,0.05,WUHU216HW,2013-03-18 13:35:00,
2013-03-18 08:40:00,32.8,23.0,29.49,NNW,338,4.0,11.9,67,0.00,,,0.05,WUHU216HW,2013-03-18 13:40:00,
2013-03-18 08:45:00,32.8,23.0,29.49,NNW,338,3.1,11.9,67,0.00,,,0.05,WUHU216HW,2013-03-18 13:45:00,
2013-03-18 08:50:00,32.9,23.1,29.49,NNW,338,7.6,7.6,67,0.00,,,0.05,WUHU216HW,2013-03-18 13:50:00,
2013-03-18 08:55:00,32.9,22.1,29.49,NNW,338,4.7,9.2,64,0.00,,,0.05,WUHU216HW,2013-03-18 13:55:00,
2013-03-18 09:00:00,32.9,22.1,29.49,NNW,338,7.6,9.2,64,0.00,,,0.05,WUHU216HW,2013-03-18 14:00:00,
2013-03-18 09:05:00,32.9,21.3,29.50,NNW,338,6.3,8.7,62,0.00,,,0.05,WUHU216HW,2013-03-18 14:05:00,
2013-03-18 09:10:00,32.9,20.6,29.50,NNW,338,8.5,10.1,60,0.00,,,0.05,WUHU216HW,2013-03-18 14:10:00,
2013-03-18 09:15:00,32.8,18.3,29.49,NNW,338,13.2,15.0,55,0.00,,,0.05,WUHU216HW,2013-03-18 14:15:00,
2013-03-18 09:20:00,32.4,18.4,29.50,NNW,338,14.5,15.0,56,0.00,,,0.05,WUHU216HW,2013-03-18 14:20:00,
2013-03-18 09:25:00,32.4,18.4,29.50,NNW,338,4.7,14.5,56,0.00,,,0.05,WUHU216HW,2013-03-18 14:25:00,
2013-03-18 09:30:00,32.8,19.2,29.50,NNW,338,8.1,9.8,57,0.00,,,0.05,WUHU216HW,2013-03-18 14:30:00,
2013-03-18 09:35:00,32.8,19.6,29.50,NNW,338,5.4,8.7,58,0.00,,,0.05,WUHU216HW,2013-03-18 14:35:00,
2013-03-18 09:40:00,33.1,19.4,29.51,North,0,7.6,9.8,57,0.00,,,0.05,WUHU216HW,2013-03-18 14:40:00,
2013-03-18 09:45:00,33.3,19.2,29.51,NNW,338,12.8,12.8,56,0.00,,,0.05,WUHU216HW,2013-03-18 14:45:00,
2013-03-18 09:50:00,33.1,18.6,29.51,NNW,338,8.9,16.3,55,0.00,,,0.05,WUHU216HW,2013-03-18 14:50:00,
2013-03-18 09:55:00,33.1,19.1,29.52,NNW,338,5.1,16.3,56,0.00,,,0.05,WUHU216HW,2013-03-18 14:55:00,
2013-03-18 10:00:00,33.1,19.4,29.52,NNW,338,4.0,12.8,57,0.00,,,0.05,WUHU216HW,2013-03-18 15:00:00,
2013-03-18 10:05:00,33.8,20.2,29.52,West,270,4.7,10.5,57,0.00,,,0.05,WUHU216HW,2013-03-18 15:05:00,
2013-03-18 10:10:00,33.8,19.7,29.52,WNW,293,5.1,9.6,56,0.00,,,0.05,WUHU216HW,2013-03-18 15:10:00,
2013-03-18 10:15:00,34.0,19.4,29.52,NW,315,8.7,10.5,55,0.00,,,0.05,WUHU216HW,2013-03-18 15:15:00,
2013-03-18 10:20:00,34.0,19.4,29.52,West,270,9.8,10.5,55,0.00,,,0.05,WUHU216HW,2013-03-18 15:20:00,
2013-03-18 10:25:00,33.8,19.3,29.52,West,270,8.3,12.1,55,0.00,,,0.05,WUHU216HW,2013-03-18 15:25:00,
2013-03-18 10:30:00,34.0,19.9,29.53,NW,315,7.8,12.8,56,0.00,,,0.05,WUHU216HW,2013-03-18 15:30:00,
2013-03-18 10:35:00,34.0,19.9,29.53,NW,315,5.8,12.8,56,0.00,,,0.05,WUHU216HW,2013-03-18 15:35:00,
2013-03-18 10:40:00,34.2,20.5,29.53,North,0,6.5,11.2,57,0.00,,,0.05,WUHU216HW,2013-03-18 15:40:00,
2013-03-18 10:45:00,34.2,19.6,29.53,North,0,10.5,13.6,55,0.00,,,0.05,WUHU216HW,2013-03-18 15:45:00,
2013-03-18 10:50:00,34.2,20.1,29.53,NNW,338,3.4,13.6,56,0.00,,,0.05,WUHU216HW,2013-03-18 15:50:00,
2013-03-18 10:55:00,34.7,20.6,29.53,NW,315,6.0,12.1,56,0.00,,,0.05,WUHU216HW,2013-03-18 15:55:00,
2013-03-18 11:00:00,34.9,20.3,29.53,NW,315,8.3,14.3,55,0.00,,,0.05,WUHU216HW,2013-03-18 16:00:00,
2013-03-18 11:05:00,35.1,21.4,29.53,North,0,2.7,14.3,57,0.00,,,0.05,WUHU216HW,2013-03-18 16:05:00,
2013-03-18 11:10:00,35.3,21.2,29.53,NW,315,11.9,11.9,56,0.00,,,0.05,WUHU216HW,2013-03-18 16:10:00,
2013-03-18 11:15:00,35.5,21.3,29.53,NNW,338,8.1,11.9,56,0.00,,,0.05,WUHU216HW,2013-03-18 16:15:00,
2013-03-18 11:20:00,35.3,20.7,29.54,West,270,8.7,11.9,55,0.00,,,0.05,WUHU216HW,2013-03-18 16:20:00,
2013-03-18 11:25:00,35.5,21.3,29.54,NW,315,7.6,11.9,56,0.00,,,0.05,WUHU216HW,2013-03-18 16:25:00,
2013-03-18 11:30:00,35.6,21.5,29.54,NW,315,6.3,8.5,56,0.00,,,0.05,WUHU216HW,2013-03-18 16:30:00,
2013-03-18 11:35:00,35.6,20.6,29.54,WNW,293,6.9,11.4,54,0.00,,,0.05,WUHU216HW,2013-03-18 16:35:00,
2013-03-18 11:40:00,35.8,21.7,29.54,NNW,338,6.9,11.4,56,0.00,,,0.05,WUHU216HW,2013-03-18 16:40:00,
2013-03-18 11:45:00,36.2,21.2,29.55,WNW,293,5.1,9.8,54,0.00,,,0.05,WUHU216HW,2013-03-18 16:45:00,
2013-03-18 11:50:00,36.4,21.2,29.55,NNW,338,4.7,9.2,54,0.00,,,0.05,WUHU216HW,2013-03-18 16:50:00,
2013-03-18 11:55:00,36.2,20.3,29.55,NW,315,6.5,9.8,52,0.00,,,0.05,WUHU216HW,2013-03-18 16:55:00,
2013-03-18 12:00:00,36.0,20.1,29.55,NE,45,7.4,9.8,52,0.00,,,0.05,WUHU216HW,2013-03-18 17:00:00,
2013-03-18 12:05:00,35.5,19.2,29.55,NNW,338,16.1,16.1,51,0.00,,,0.05,WUHU216HW,2013-03-18 17:05:00,
2013-03-18 12:10:00,35.3,19.8,29.56,NW,315,7.4,16.1,53,0.00,,,0.05,WUHU216HW,2013-03-18 17:10:00,
2013-03-18 12:15:00,35.8,20.3,29.56,ENE,68,8.5,10.5,53,0.00,,,0.05,WUHU216HW,2013-03-18 17:15:00,
2013-03-18 12:20:00,35.8,18.5,29.56,NNW,338,12.5,14.1,49,0.00,,,0.05,WUHU216HW,2013-03-18 17:20:00,
2013-03-18 12:25:00,35.3,18.5,29.56,NW,315,11.4,14.1,50,0.00,,,0.05,WUHU216HW,2013-03-18 17:25:00,
2013-03-18 12:30:00,35.3,18.0,29.55,North,0,11.9,13.4,49,0.00,,,0.05,WUHU216HW,2013-03-18 17:30:00,
2013-03-18 12:35:00,35.6,17.8,29.55,SW,225,12.1,13.4,48,0.00,,,0.05,WUHU216HW,2013-03-18 17:35:00,
2013-03-18 12:40:00,36.0,17.1,29.56,NW,315,4.7,13.9,46,0.00,,,0.05,WUHU216HW,2013-03-18 17:40:00,
2013-03-18 12:45:00,36.4,18.0,29.56,WNW,293,6.5,13.9,47,0.00,,,0.05,WUHU216HW,2013-03-18 17:45:00,
2013-03-18 12:50:00,36.5,17.7,29.56,West,270,10.5,10.5,46,0.00,,,0.05,WUHU216HW,2013-03-18 17:50:00,
2013-03-18 12:55:00,36.2,16.7,29.56,WNW,293,13.0,13.0,45,0.00,,,0.05,WUHU216HW,2013-03-18 17:55:00,
2013-03-18 13:00:00,36.0,16.7,29.57,NW,315,6.3,13.0,45,0.00,,,0.05,WUHU216HW,2013-03-18 18:00:00,
2013-03-18 13:05:00,36.0,17.1,29.56,NNE,23,9.2,9.6,46,0.00,,,0.05,WUHU216HW,2013-03-18 18:05:00,
2013-03-18 13:10:00,36.2,17.8,29.57,NE,45,11.9,11.9,47,0.00,,,0.05,WUHU216HW,2013-03-18 18:10:00,
2013-03-18 13:15:00,36.2,16.7,29.57,WNW,293,7.2,14.3,45,0.00,,,0.05,WUHU216HW,2013-03-18 18:15:00,
2013-03-18 13:20:00,36.2,16.7,29.57,WNW,293,8.3,14.3,45,0.00,,,0.05,WUHU216HW,2013-03-18 18:20:00,
2013-03-18 13:25:00,36.0,17.1,29.57,WNW,293,8.3,12.8,46,0.00,,,0.05,WUHU216HW,2013-03-18 18:25:00,
2013-03-18 13:30:00,36.4,18.0,29.57,NW,315,6.0,12.8,47,0.00,,,0.05,WUHU216HW,2013-03-18 18:30:00,
2013-03-18 13:35:00,36.5,18.2,29.57,NW,315,5.6,9.2,47,0.00,,,0.05,WUHU216HW,2013-03-18 18:35:00,
2013-03-18 13:40:00,36.7,17.8,29.57,NE,45,6.9,9.2,46,0.00,,,0.05,WUHU216HW,2013-03-18 18:40:00,
2013-03-18 13:45:00,37.1,18.1,29.57,NW,315,9.2,9.6,46,0.00,,,0.05,WUHU216HW,2013-03-18 18:45:00,
2013-03-18 13:50:00,36.9,17.5,29.57,NW,315,7.6,13.9,45,0.00,,,0.05,WUHU216HW,2013-03-18 18:50:00,
2013-03-18 13:55:00,36.5,17.1,29.58,NW,315,10.7,13.9,45,0.00,,,0.05,WUHU216HW,2013-03-18 18:55:00,
2013-03-18 14:00:00,36.2,16.7,29.58,NNW,338,10.7,13.4,45,0.00,,,0.05,WUHU216HW,2013-03-18 19:00:00,
2013-03-18 14:05:00,36.0,17.1,29.58,NW,315,9.2,12.8,46,0.00,,,0.05,WUHU216HW,2013-03-18 19:05:00,
2013-03-18 14:10:00,36.2,16.7,29.58,NNW,338,10.7,17.2,45,0.00,,,0.05,WUHU216HW,2013-03-18 19:10:00,
2013-03-18 14:15:00,36.2,17.3,29.58,NW,315,6.7,17.2,46,0.00,,,0.05,WUHU216HW,2013-03-18 19:15:00,
2013-03-18 14:20:00,36.5,17.1,29.58,NW,315,6.5,13.0,45,0.00,,,0.05,WUHU216HW,2013-03-18 19:20:00,
2013-03-18 14:25:00,37.1,18.1,29.58,WNW,293,6.5,13.0,46,0.00,,,0.05,WUHU216HW,2013-03-18 19:25:00,
2013-03-18 14:30:00,37.1,17.6,29.58,NW,315,10.5,10.5,45,0.00,,,0.05,WUHU216HW,2013-03-18 19:30:00,
2013-03-18 14:35:00,37.1,17.6,29.58,North,0,9.6,10.5,45,0.00,,,0.05,WUHU216HW,2013-03-18 19:35:00,
2013-03-18 14:40:00,37.1,17.6,29.58,North,0,5.6,9.6,45,0.00,,,0.05,WUHU216HW,2013-03-18 19:40:00,
2013-03-18 14:45:00,37.3,17.7,29.58,WNW,293,8.5,12.1,45,0.00,,,0.05,WUHU216HW,2013-03-18 19:45:00,
2013-03-18 14:50:00,37.6,18.1,29.58,NW,315,5.6,12.1,45,0.00,,,0.05,WUHU216HW,2013-03-18 19:50:00,
2013-03-18 14:55:00,37.8,18.3,29.58,West,270,5.6,11.9,45,0.00,,,0.05,WUHU216HW,2013-03-18 19:55:00,
2013-03-18 15:00:00,37.6,18.1,29.58,NNW,338,7.6,11.9,45,0.00,,,0.05,WUHU216HW,2013-03-18 20:00:00,
2013-03-18 15:05:00,37.4,17.9,29.58,North,0,6.0,11.9,45,0.00,,,0.05,WUHU216HW,2013-03-18 20:05:00,
2013-03-18 15:10:00,37.1,16.6,29.58,West,270,9.6,14.3,43,0.00,,,0.05,WUHU216HW,2013-03-18 20:10:00,
2013-03-18 15:15:00,37.1,17.6,29.58,NW,315,10.5,14.3,45,0.00,,,0.05,WUHU216HW,2013-03-18 20:15:00,
2013-03-18 15:20:00,37.1,17.1,29.58,WSW,248,14.5,14.5,44,0.00,,,0.05,WUHU216HW,2013-03-18 20:20:00,
2013-03-18 15:25:00,36.9,16.9,29.58,NW,315,12.1,14.5,44,0.00,,,0.05,WUHU216HW,2013-03-18 20:25:00,
2013-03-18 15:30:00,37.1,17.1,29.58,WNW,293,8.7,12.1,44,0.00,,,0.05,WUHU216HW,2013-03-18 20:30:00,
2013-03-18 15:35:00,37.1,16.6,29.58,ENE,68,7.6,10.5,43,0.00,,,0.05,WUHU216HW,2013-03-18 20:35:00,
2013-03-18 15:40:00,37.1,17.6,29.58,NNW,338,13.2,13.2,45,0.00,,,0.05,WUHU216HW,2013-03-18 20:40:00,
2013-03-18 15:45:00,36.9,16.9,29.58,NNW,338,8.1,13.2,44,0.00,,,0.05,WUHU216HW,2013-03-18 20:45:00,
2013-03-18 15:50:00,36.4,16.4,29.58,North,0,8.1,11.4,44,0.00,,,0.05,WUHU216HW,2013-03-18 20:50:00,
2013-03-18 15:55:00,36.4,16.4,29.59,NW,315,17.2,17.2,44,0.00,,,0.05,WUHU216HW,2013-03-18 20:55:00,
2013-03-18 16:00:00,36.0,16.1,29.59,NNE,23,9.2,17.2,44,0.00,,,0.05,WUHU216HW,2013-03-18 21:00:00,
2013-03-18 16:05:00,36.4,16.9,29.59,WNW,293,13.2,16.3,45,0.00,,,0.05,WUHU216HW,2013-03-18 21:05:00,
2013-03-18 16:10:00,36.4,16.9,29.60,NNW,338,9.8,14.1,45,0.00,,,0.05,WUHU216HW,2013-03-18 21:10:00,
2013-03-18 16:15:00,36.4,16.9,29.60,West,270,11.6,12.3,45,0.00,,,0.05,WUHU216HW,2013-03-18 21:15:00,
2013-03-18 16:20:00,36.0,16.1,29.60,NW,315,7.6,11.6,44,0.00,,,0.05,WUHU216HW,2013-03-18 21:20:00,
2013-03-18 16:25:00,36.4,16.9,29.60,West,270,6.3,10.7,45,0.00,,,0.05,WUHU216HW,2013-03-18 21:25:00,
2013-03-18 16:30:00,37.1,17.6,29.60,NNW,338,5.8,10.7,45,0.00,,,0.05,WUHU216HW,2013-03-18 21:30:00,
2013-03-18 16:35:00,36.9,16.4,29.60,WNW,293,8.9,9.4,43,0.00,,,0.05,WUHU216HW,2013-03-18 21:35:00,
2013-03-18 16:40:00,36.7,16.2,29.60,NNW,338,6.7,11.2,43,0.00,,,0.05,WUHU216HW,2013-03-18 21:40:00,
2013-03-18 16:45:00,36.2,15.8,29.60,NNW,338,12.3,13.4,43,0.00,,,0.05,WUHU216HW,2013-03-18 21:45:00,
2013-03-18 16:50:00,36.2,16.7,29.61,NW,315,6.7,14.5,45,0.00,,,0.05,WUHU216HW,2013-03-18 21:50:00,
2013-03-18 16:55:00,36.4,15.9,29.60,NW,315,11.9,14.5,43,0.00,,,0.05,WUHU216HW,2013-03-18 21:55:00,
2013-03-18 17:00:00,36.0,15.0,29.60,NW,315,8.9,15.2,42,0.00,,,0.05,WUHU216HW,2013-03-18 22:00:00,
2013-03-18 17:05:00,36.0,14.5,29.61,NNW,338,10.7,15.2,41,0.00,,,0.05,WUHU216HW,2013-03-18 22:05:00,
2013-03-18 17:10:00,35.8,14.4,29.61,NNW,338,7.2,10.7,41,0.00,,,0.05,WUHU216HW,2013-03-18 22:10:00,
2013-03-18 17:15:00,36.0,16.1,29.61,North,0,5.4,13.4,44,0.00,,,0.05,WUHU216HW,2013-03-18 22:15:00,
2013-03-18 17:20:00,36.2,16.3,29.61,WNW,293,5.8,13.4,44,0.00,,,0.05,WUHU216HW,2013-03-18 22:20:00,
2013-03-18 17:25:00,36.4,15.4,29.61,SSE,158,7.6,11.6,42,0.00,,,0.05,WUHU216HW,2013-03-18 22:25:00,
2013-03-18 17:30:00,36.4,15.9,29.61,NW,315,8.5,11.6,43,0.00,,,0.05,WUHU216HW,2013-03-18 22:30:00,
2013-03-18 17:35:00,36.4,15.9,29.61,NW,315,14.3,14.3,43,0.00,,,0.05,WUHU216HW,2013-03-18 22:35:00,
2013-03-18 17:40:00,36.2,14.7,29.61,North,0,10.3,17.4,41,0.00,,,0.05,WUHU216HW,2013-03-18 22:40:00,
2013-03-18 17:45:00,35.6,14.8,29.61,NW,315,4.7,17.4,42,0.00,,,0.05,WUHU216HW,2013-03-18 22:45:00,
2013-03-18 17:50:00,35.8,14.9,29.61,NW,315,4.7,11.4,42,0.00,,,0.05,WUHU216HW,2013-03-18 22:50:00,
2013-03-18 17:55:00,35.8,14.9,29.62,NW,315,4.5,11.6,42,0.00,,,0.05,WUHU216HW,2013-03-18 22:55:00,
2013-03-18 18:00:00,36.0,15.0,29.62,West,270,6.7,11.6,42,0.00,,,0.05,WUHU216HW,2013-03-18 23:00:00,
2013-03-18 18:05:00,35.8,14.9,29.62,WNW,293,3.6,8.7,42,0.00,,,0.05,WUHU216HW,2013-03-18 23:05:00,
2013-03-18 18:10:00,36.0,15.0,29.62,North,0,8.3,8.3,42,0.00,,,0.05,WUHU216HW,2013-03-18 23:10:00,
2013-03-18 18:15:00,35.8,14.4,29.62,West,270,6.0,8.7,41,0.00,,,0.05,WUHU216HW,2013-03-18 23:15:00,
2013-03-18 18:20:00,35.6,14.8,29.63,WNW,293,4.0,8.7,42,0.00,,,0.05,WUHU216HW,2013-03-18 23:20:00,
2013-03-18 18:25:00,35.8,14.4,29.63,NW,315,6.3,7.2,41,0.00,,,0.05,WUHU216HW,2013-03-18 23:25:00,
2013-03-18 18:30:00,35.6,14.2,29.63,NNW,338,8.7,15.0,41,0.00,,,0.05,WUHU216HW,2013-03-18 23:30:00,
2013-03-18 18:35:00,35.5,14.1,29.63,NW,315,7.2,15.0,41,0.00,,,0.05,WUHU216HW,2013-03-18 23:35:00,
2013-03-18 18:40:00,35.3,13.9,29.63,NW,315,7.6,9.8,41,0.00,,,0.05,WUHU216HW,2013-03-18 23:40:00,
2013-03-18 18:45:00,35.3,13.9,29.63,NW,315,8.7,8.7,41,0.00,,,0.05,WUHU216HW,2013-03-18 23:45:00,
2013-03-18 18:50:00,34.9,13.6,29.64,NW,315,5.6,8.7,41,0.00,,,0.05,WUHU216HW,2013-03-18 23:50:00,
2013-03-18 18:55:00,34.9,13.6,29.63,West,270,4.7,9.4,41,0.00,,,0.05,WUHU216HW,2013-03-18 23:55:00,
2013-03-18 19:00:00,34.7,13.9,29.64,North,0,7.2,10.7,42,0.00,,,0.05,WUHU216HW,2013-03-19 00:00:00,
2013-03-18 19:05:00,34.7,13.9,29.64,NW,315,6.9,10.7,42,0.00,,,0.05,WUHU216HW,2013-03-19 00:05:00,
2013-03-18 19:10:00,34.6,14.2,29.64,NNW,338,5.4,8.3,43,0.00,,,0.05,WUHU216HW,2013-03-19 00:10:00,
2013-03-18 19:15:00,34.4,14.0,29.64,West,270,4.0,6.9,43,0.00,,,0.05,WUHU216HW,2013-03-19 00:15:00,
2013-03-18 19:29:00,34.2,14.4,29.65,WSW,248,4.3,17.4,44,0.00,,,0.05,WUHU216HW,2013-03-19 00:29:00,
2013-03-18 19:34:00,34.0,14.2,29.65,NW,315,4.5,17.4,44,0.00,,,0.05,WUHU216HW,2013-03-19 00:34:00,
2013-03-18 19:39:00,34.0,14.8,29.65,NW,315,4.5,17.4,45,0.00,,,0.05,WUHU216HW,2013-03-19 00:39:00,
2013-03-18 19:44:00,33.8,14.6,29.65,West,270,3.1,17.4,45,0.00,,,0.05,WUHU216HW,2013-03-19 00:44:00,
2013-03-18 19:49:00,33.7,14.4,29.65,WNW,293,4.3,15.0,45,0.00,,,0.05,WUHU216HW,2013-03-19 00:49:00,
2013-03-18 19:54:00,33.7,14.4,29.65,NNW,338,3.6,15.0,45,0.00,,,0.05,WUHU216HW,2013-03-19 00:54:00,
2013-03-18 19:59:00,33.5,14.2,29.66,NNE,23,6.9,15.0,45,0.00,,,0.05,WUHU216HW,2013-03-19 00:59:00,
2013-03-18 20:04:00,33.5,14.2,29.66,NNW,338,4.3,15.0,45,0.00,,,0.05,WUHU216HW,2013-03-19 01:04:00,
2013-03-18 20:09:00,33.3,14.6,29.66,NW,315,4.5,15.0,46,0.00,,,0.05,WUHU216HW,2013-03-19 01:09:00,
2013-03-18 20:14:00,33.3,14.6,29.66,NNW,338,1.3,15.0,46,0.00,,,0.05,WUHU216HW,2013-03-19 01:14:00,
2013-03-18 20:19:00,33.3,14.6,29.66,WNW,293,2.7,15.0,46,0.00,,,0.05,WUHU216HW,2013-03-19 01:19:00,
2013-03-18 20:24:00,33.1,14.9,29.67,NNW,338,3.4,15.0,47,0.00,,,0.05,WUHU216HW,2013-03-19 01:24:00,
2013-03-18 20:29:00,33.1,14.9,29.67,NNW,338,5.4,15.0,47,0.00,,,0.05,WUHU216HW,2013-03-19 01:29:00,
2013-03-18 20:34:00,33.1,14.9,29.67,North,0,1.8,15.0,47,0.00,,,0.05,WUHU216HW,2013-03-19 01:34:00,
2013-03-18 20:39:00,32.9,14.8,29.67,NNW,338,2.7,10.7,47,0.00,,,0.05,WUHU216HW,2013-03-19 01:39:00,
2013-03-18 20:44:00,32.9,15.3,29.67,NNW,338,2.5,10.7,48,0.00,,,0.05,WUHU216HW,2013-03-19 01:44:00,
2013-03-18 20:49:00,32.8,15.1,29.67,North,0,1.3,10.7,48,0.00,,,0.05,WUHU216HW,2013-03-19 01:49:00,
2013-03-18 20:54:00,32.8,15.7,29.68,NW,315,1.3,10.7,49,0.00,,,0.05,WUHU216HW,2013-03-19 01:54:00,
2013-03-18 20:59:00,32.8,15.1,29.68,WNW,293,3.4,10.7,48,0.00,,,0.05,WUHU216HW,2013-03-19 01:59:00,
2013-03-18 21:04:00,32.6,15.5,29.67,WNW,293,2.5,10.7,49,0.00,,,0.05,WUHU216HW,2013-03-19 02:04:00,
2013-03-18 21:09:00,32.6,15.5,29.67,NW,315,2.5,8.3,49,0.00,,,0.05,WUHU216HW,2013-03-19 02:09:00,
2013-03-18 21:14:00,32.4,15.3,29.67,NW,315,1.8,6.9,49,0.00,,,0.05,WUHU216HW,2013-03-19 02:14:00,
2013-03-18 21:19:00,32.4,15.3,29.68,NNW,338,3.1,6.9,49,0.00,,,0.05,WUHU216HW,2013-03-19 02:19:00,
2013-03-18 21:24:00,32.2,15.1,29.67,West,270,1.8,4.7,49,0.00,,,0.05,WUHU216HW,2013-03-19 02:24:00,
2013-03-18 21:29:00,32.2,15.1,29.67,North,0,2.7,4.7,49,0.00,,,0.05,WUHU216HW,2013-03-19 02:29:00,
2013-03-18 21:34:00,32.0,14.9,29.67,NNW,338,2.5,4.7,49,0.00,,,0.05,WUHU216HW,2013-03-19 02:34:00,
2013-03-18 21:39:00,32.0,15.5,29.67,North,0,3.4,3.4,50,0.00,,,0.05,WUHU216HW,2013-03-19 02:39:00,
2013-03-18 21:44:00,31.9,15.3,29.67,NNW,338,2.2,3.4,50,0.00,,,0.05,WUHU216HW,2013-03-19 02:44:00,
2013-03-18 21:49:00,31.9,14.9,29.67,NW,315,2.2,3.4,49,0.00,,,0.05,WUHU216HW,2013-03-19 02:49:00,
2013-03-18 21:54:00,31.9,14.9,29.67,NW,315,2.2,3.4,49,0.00,,,0.05,WUHU216HW,2013-03-19 02:54:00,
2013-03-18 21:59:00,31.7,15.1,29.67,NNE,23,0.2,3.4,50,0.00,,,0.05,WUHU216HW,2013-03-19 02:59:00,
2013-03-18 22:04:00,31.9,15.3,29.67,North,0,1.1,1.6,50,0.00,,,0.05,WUHU216HW,2013-03-19 03:04:00,
2013-03-18 22:09:00,31.7,15.1,29.68,NNW,338,2.5,3.4,50,0.00,,,0.05,WUHU216HW,2013-03-19 03:09:00,
2013-03-18 22:14:00,31.7,15.6,29.68,NW,315,0.4,3.4,51,0.00,,,0.05,WUHU216HW,2013-03-19 03:14:00,
2013-03-18 22:19:00,31.7,16.0,29.68,NW,315,0.4,2.0,52,0.00,,,0.05,WUHU216HW,2013-03-19 03:19:00,
2013-03-18 22:24:00,32.0,16.7,29.69,NNW,338,0.4,1.6,53,0.00,,,0.05,WUHU216HW,2013-03-19 03:24:00,
2013-03-18 22:29:00,32.4,17.1,29.69,NNW,338,0.4,0.7,53,0.00,,,0.05,WUHU216HW,2013-03-19 03:29:00,
2013-03-18 22:34:00,32.6,17.3,29.70,NNW,338,0.0,0.4,53,0.00,,,0.05,WUHU216HW,2013-03-19 03:34:00,
2013-03-18 22:39:00,32.6,17.3,29.70,North,0,0.2,0.4,53,0.00,,,0.05,WUHU216HW,2013-03-19 03:39:00,
2013-03-18 22:44:00,32.4,17.1,29.71,NNW,338,0.4,0.4,53,0.00,,,0.05,WUHU216HW,2013-03-19 03:44:00,
2013-03-18 22:49:00,32.2,17.4,29.71,NNW,338,0.4,0.4,54,0.00,,,0.05,WUHU216HW,2013-03-19 03:49:00,
2013-03-18 22:54:00,32.0,16.7,29.71,North,0,0.4,1.3,53,0.00,,,0.05,WUHU216HW,2013-03-19 03:54:00,
2013-03-18 22:59:00,31.7,16.5,29.71,NW,315,0.4,1.3,53,0.00,,,0.05,WUHU216HW,2013-03-19 03:59:00,
2013-03-18 23:00:00,31.7,16.5,29.71,NW,315,1.3,1.3,53,0.00,,,0.05,WUHU216HW,2013-03-19 04:00:00,
2013-03-18 23:05:00,31.3,16.1,29.71,NW,315,0.2,1.3,53,0.00,,,0.05,WUHU216HW,2013-03-19 04:05:00,
2013-03-18 23:10:00,31.1,16.4,29.70,NE,45,0.7,0.7,54,0.00,,,0.05,WUHU216HW,2013-03-19 04:10:00,
2013-03-18 23:15:00,31.0,16.2,29.71,NNW,338,1.1,1.3,54,0.00,,,0.05,WUHU216HW,2013-03-19 04:15:00,
2013-03-18 23:20:00,30.8,16.0,29.70,NNW,338,0.4,1.3,54,0.00,,,0.05,WUHU216HW,2013-03-19 04:20:00,
2013-03-18 23:25:00,30.6,15.8,29.70,NNW,338,1.1,1.1,54,0.00,,,0.05,WUHU216HW,2013-03-19 04:25:00,
2013-03-18 23:30:00,30.6,15.8,29.71,NNW,338,0.4,1.1,54,0.00,,,0.05,WUHU216HW,2013-03-19 04:30:00,
2013-03-18 23:35:00,30.6,16.3,29.71,NE,45,0.0,0.9,55,0.00,,,0.05,WUHU216HW,2013-03-19 04:35:00,
2013-03-18 23:40:00,30.6,17.6,29.71,North,0,0.0,0.9,58,0.00,,,0.05,WUHU216HW,2013-03-19 04:40:00,
2013-03-18 23:45:00,31.3,19.8,29.71,North,0,0.4,0.7,62,0.00,,,0.05,WUHU216HW,2013-03-19 04:45:00,
2013-03-18 23:50:00,31.7,20.2,29.70,NNW,338,0.9,1.1,62,0.00,,,0.05,WUHU216HW,2013-03-19 04:50:00,
2013-03-18 23:55:00,32.0,21.2,29.71,NNW,338,0.7,1.1,64,0.00,,,0.05,WUHU216HW,2013-03-19 04:55:00,